sensor_id;sensor_type;location;lat;lon;timestamp;P1;durP1;ratioP1;P2;durP2;ratioP2
40871;SDS011;26591;43.264;26.940;2023-05-07T00:02:01;8.52;;;2.58;;
40871;SDS011;26591;43.264;26.940;2023-05-07T00:04:28;7.25;;;3.10;;
40871;SDS011;26591;43.264;26.940;2023-05-07T00:07:00;4.88;;;2.17;;
40871;SDS011;26591;43.264;26.940;2023-05-07T00:09:26;4.57;;;2.30;;
40871;SDS011;26591;43.264;26.940;2023-05-07T00:11:52;4.78;;;1.85;;
40871;SDS011;26591;43.264;26.940;2023-05-07T00:14:17;6.20;;;2.15;;
40871;SDS011;26591;43.264;26.940;2023-05-07T00:16:43;5.55;;;2.88;;
40871;SDS011;26591;43.264;26.940;2023-05-07T00:19:08;8.15;;;2.00;;
40871;SDS011;26591;43.264;26.940;2023-05-07T00:21:34;3.92;;;2.00;;
40871;SDS011;26591;43.264;26.940;2023-05-07T00:23:59;3.25;;;1.70;;
40871;SDS011;26591;43.264;26.940;2023-05-07T00:26:25;4.95;;;1.80;;
40871;SDS011;26591;43.264;26.940;2023-05-07T00:28:50;5.80;;;2.00;;
40871;SDS011;26591;43.264;26.940;2023-05-07T00:31:16;4.00;;;2.00;;
40871;SDS011;26591;43.264;26.940;2023-05-07T00:33:41;4.63;;;1.90;;
40871;SDS011;26591;43.264;26.940;2023-05-07T00:36:07;10.40;;;1.95;;
40871;SDS011;26591;43.264;26.940;2023-05-07T00:38:32;3.53;;;1.90;;
40871;SDS011;26591;43.264;26.940;2023-05-07T00:40:58;4.78;;;2.28;;
40871;SDS011;26591;43.264;26.940;2023-05-07T00:43:23;6.72;;;2.38;;
40871;SDS011;26591;43.264;26.940;2023-05-07T00:45:52;4.38;;;2.10;;
40871;SDS011;26591;43.264;26.940;2023-05-07T00:48:27;4.07;;;1.77;;
40871;SDS011;26591;43.264;26.940;2023-05-07T00:50:53;2.88;;;1.90;;
40871;SDS011;26591;43.264;26.940;2023-05-07T00:53:19;4.82;;;1.80;;
40871;SDS011;26591;43.264;26.940;2023-05-07T00:55:45;2.20;;;1.50;;
40871;SDS011;26591;43.264;26.940;2023-05-07T00:58:11;5.85;;;2.28;;
40871;SDS011;26591;43.264;26.940;2023-05-07T01:00:37;3.67;;;2.17;;
40871;SDS011;26591;43.264;26.940;2023-05-07T01:03:02;9.95;;;3.20;;
40871;SDS011;26591;43.264;26.940;2023-05-07T01:05:28;2.80;;;1.77;;
40871;SDS011;26591;43.264;26.940;2023-05-07T01:07:55;6.07;;;1.90;;
40871;SDS011;26591;43.264;26.940;2023-05-07T01:10:22;9.00;;;1.73;;
40871;SDS011;26591;43.264;26.940;2023-05-07T01:12:47;6.55;;;2.58;;
40871;SDS011;26591;43.264;26.940;2023-05-07T01:15:14;10.27;;;3.20;;
40871;SDS011;26591;43.264;26.940;2023-05-07T01:17:40;15.05;;;5.00;;
40871;SDS011;26591;43.264;26.940;2023-05-07T01:20:07;20.58;;;9.25;;
40871;SDS011;26591;43.264;26.940;2023-05-07T01:22:34;11.90;;;4.30;;
40871;SDS011;26591;43.264;26.940;2023-05-07T01:25:02;30.73;;;11.93;;
40871;SDS011;26591;43.264;26.940;2023-05-07T01:27:28;19.25;;;7.07;;
40871;SDS011;26591;43.264;26.940;2023-05-07T01:29:54;10.05;;;4.70;;
40871;SDS011;26591;43.264;26.940;2023-05-07T01:32:21;6.30;;;3.25;;
40871;SDS011;26591;43.264;26.940;2023-05-07T01:35:13;7.10;;;2.17;;
40871;SDS011;26591;43.264;26.940;2023-05-07T01:37:43;7.10;;;2.65;;
40871;SDS011;26591;43.264;26.940;2023-05-07T01:40:10;5.25;;;2.33;;
40871;SDS011;26591;43.264;26.940;2023-05-07T01:42:36;4.53;;;1.83;;
40871;SDS011;26591;43.264;26.940;2023-05-07T01:45:02;10.30;;;2.08;;
40871;SDS011;26591;43.264;26.940;2023-05-07T01:47:29;7.43;;;2.80;;
40871;SDS011;26591;43.264;26.940;2023-05-07T01:49:55;5.07;;;2.90;;
40871;SDS011;26591;43.264;26.940;2023-05-07T01:52:22;5.82;;;1.63;;
40871;SDS011;26591;43.264;26.940;2023-05-07T01:54:50;6.07;;;2.03;;
40871;SDS011;26591;43.264;26.940;2023-05-07T01:57:16;5.80;;;1.90;;
40871;SDS011;26591;43.264;26.940;2023-05-07T01:59:41;11.15;;;2.05;;
40871;SDS011;26591;43.264;26.940;2023-05-07T02:02:06;6.50;;;1.77;;
40871;SDS011;26591;43.264;26.940;2023-05-07T02:04:32;2.45;;;1.60;;
40871;SDS011;26591;43.264;26.940;2023-05-07T02:06:58;3.78;;;2.15;;
40871;SDS011;26591;43.264;26.940;2023-05-07T02:09:23;3.00;;;1.33;;
40871;SDS011;26591;43.264;26.940;2023-05-07T02:11:49;6.18;;;1.77;;
40871;SDS011;26591;43.264;26.940;2023-05-07T02:14:14;3.15;;;1.70;;
40871;SDS011;26591;43.264;26.940;2023-05-07T02:16:40;5.53;;;2.13;;
40871;SDS011;26591;43.264;26.940;2023-05-07T02:19:06;12.07;;;4.20;;
40871;SDS011;26591;43.264;26.940;2023-05-07T02:21:32;11.80;;;3.75;;
40871;SDS011;26591;43.264;26.940;2023-05-07T02:23:57;6.45;;;2.15;;
40871;SDS011;26591;43.264;26.940;2023-05-07T02:26:22;3.92;;;1.95;;
40871;SDS011;26591;43.264;26.940;2023-05-07T02:28:48;6.95;;;1.85;;
40871;SDS011;26591;43.264;26.940;2023-05-07T02:31:13;5.78;;;1.85;;
40871;SDS011;26591;43.264;26.940;2023-05-07T02:33:39;9.10;;;1.90;;
40871;SDS011;26591;43.264;26.940;2023-05-07T02:36:10;4.88;;;2.10;;
40871;SDS011;26591;43.264;26.940;2023-05-07T02:38:36;7.18;;;2.10;;
40871;SDS011;26591;43.264;26.940;2023-05-07T02:41:02;6.40;;;2.25;;
40871;SDS011;26591;43.264;26.940;2023-05-07T02:43:28;3.55;;;1.63;;
40871;SDS011;26591;43.264;26.940;2023-05-07T02:46:27;4.47;;;2.00;;
40871;SDS011;26591;43.264;26.940;2023-05-07T02:48:45;3.78;;;1.90;;
40871;SDS011;26591;43.264;26.940;2023-05-07T02:51:11;15.30;;;2.60;;
40871;SDS011;26591;43.264;26.940;2023-05-07T02:53:36;5.72;;;1.98;;
40871;SDS011;26591;43.264;26.940;2023-05-07T02:56:02;3.97;;;1.80;;
40871;SDS011;26591;43.264;26.940;2023-05-07T02:58:30;3.78;;;2.10;;
40871;SDS011;26591;43.264;26.940;2023-05-07T03:00:55;4.85;;;1.80;;
40871;SDS011;26591;43.264;26.940;2023-05-07T03:03:21;4.47;;;1.88;;
40871;SDS011;26591;43.264;26.940;2023-05-07T03:05:46;6.80;;;2.22;;
40871;SDS011;26591;43.264;26.940;2023-05-07T03:08:12;5.55;;;1.90;;
40871;SDS011;26591;43.264;26.940;2023-05-07T03:10:38;6.85;;;2.20;;
40871;SDS011;26591;43.264;26.940;2023-05-07T03:13:04;3.35;;;2.28;;
40871;SDS011;26591;43.264;26.940;2023-05-07T03:15:30;3.70;;;2.05;;
40871;SDS011;26591;43.264;26.940;2023-05-07T03:17:55;4.47;;;1.95;;
40871;SDS011;26591;43.264;26.940;2023-05-07T03:20:21;7.10;;;1.98;;
40871;SDS011;26591;43.264;26.940;2023-05-07T03:22:46;9.02;;;2.10;;
40871;SDS011;26591;43.264;26.940;2023-05-07T03:25:12;4.38;;;1.63;;
40871;SDS011;26591;43.264;26.940;2023-05-07T03:27:39;7.78;;;2.05;;
40871;SDS011;26591;43.264;26.940;2023-05-07T03:30:04;5.55;;;2.10;;
40871;SDS011;26591;43.264;26.940;2023-05-07T03:32:31;13.00;;;2.33;;
40871;SDS011;26591;43.264;26.940;2023-05-07T03:34:57;13.60;;;2.15;;
40871;SDS011;26591;43.264;26.940;2023-05-07T03:37:23;3.20;;;1.80;;
40871;SDS011;26591;43.264;26.940;2023-05-07T03:39:48;13.57;;;2.90;;
40871;SDS011;26591;43.264;26.940;2023-05-07T03:42:14;10.07;;;1.92;;
40871;SDS011;26591;43.264;26.940;2023-05-07T03:44:40;8.43;;;1.90;;
40871;SDS011;26591;43.264;26.940;2023-05-07T03:47:05;6.88;;;1.70;;
40871;SDS011;26591;43.264;26.940;2023-05-07T03:49:31;5.03;;;1.70;;
40871;SDS011;26591;43.264;26.940;2023-05-07T03:51:56;3.80;;;1.50;;
40871;SDS011;26591;43.264;26.940;2023-05-07T03:54:22;11.60;;;2.08;;
40871;SDS011;26591;43.264;26.940;2023-05-07T03:56:47;4.85;;;1.50;;
40871;SDS011;26591;43.264;26.940;2023-05-07T03:59:13;3.20;;;1.70;;
40871;SDS011;26591;43.264;26.940;2023-05-07T04:01:38;7.88;;;1.90;;
40871;SDS011;26591;43.264;26.940;2023-05-07T04:04:04;3.60;;;1.70;;
40871;SDS011;26591;43.264;26.940;2023-05-07T04:06:30;11.40;;;2.13;;
40871;SDS011;26591;43.264;26.940;2023-05-07T04:08:56;6.57;;;1.90;;
40871;SDS011;26591;43.264;26.940;2023-05-07T04:11:21;4.10;;;1.40;;
40871;SDS011;26591;43.264;26.940;2023-05-07T04:13:59;5.90;;;2.13;;
40871;SDS011;26591;43.264;26.940;2023-05-07T04:16:24;5.93;;;2.03;;
40871;SDS011;26591;43.264;26.940;2023-05-07T04:18:50;6.35;;;2.05;;
40871;SDS011;26591;43.264;26.940;2023-05-07T04:21:19;7.45;;;2.00;;
40871;SDS011;26591;43.264;26.940;2023-05-07T04:23:46;5.32;;;1.70;;
40871;SDS011;26591;43.264;26.940;2023-05-07T04:26:13;6.13;;;2.17;;
40871;SDS011;26591;43.264;26.940;2023-05-07T04:28:38;4.70;;;1.80;;
40871;SDS011;26591;43.264;26.940;2023-05-07T04:31:05;7.95;;;2.00;;
40871;SDS011;26591;43.264;26.940;2023-05-07T04:33:31;7.28;;;1.65;;
40871;SDS011;26591;43.264;26.940;2023-05-07T04:35:56;6.15;;;2.10;;
40871;SDS011;26591;43.264;26.940;2023-05-07T04:38:22;7.95;;;2.30;;
40871;SDS011;26591;43.264;26.940;2023-05-07T04:40:49;6.18;;;2.00;;
40871;SDS011;26591;43.264;26.940;2023-05-07T04:43:14;2.85;;;1.55;;
40871;SDS011;26591;43.264;26.940;2023-05-07T04:45:41;6.63;;;2.20;;
40871;SDS011;26591;43.264;26.940;2023-05-07T04:48:06;10.88;;;2.13;;
40871;SDS011;26591;43.264;26.940;2023-05-07T04:50:33;6.50;;;1.70;;
40871;SDS011;26591;43.264;26.940;2023-05-07T04:52:59;7.35;;;1.48;;
40871;SDS011;26591;43.264;26.940;2023-05-07T04:55:25;3.65;;;1.50;;
40871;SDS011;26591;43.264;26.940;2023-05-07T04:57:51;11.18;;;2.10;;
40871;SDS011;26591;43.264;26.940;2023-05-07T05:00:17;3.33;;;1.38;;
40871;SDS011;26591;43.264;26.940;2023-05-07T05:02:47;5.13;;;1.50;;
40871;SDS011;26591;43.264;26.940;2023-05-07T05:05:13;4.03;;;1.45;;
40871;SDS011;26591;43.264;26.940;2023-05-07T05:07:38;6.43;;;1.80;;
40871;SDS011;26591;43.264;26.940;2023-05-07T05:10:04;3.13;;;1.30;;
40871;SDS011;26591;43.264;26.940;2023-05-07T05:12:30;4.43;;;1.58;;
40871;SDS011;26591;43.264;26.940;2023-05-07T05:14:56;17.60;;;2.00;;
40871;SDS011;26591;43.264;26.940;2023-05-07T05:17:21;4.65;;;1.48;;
40871;SDS011;26591;43.264;26.940;2023-05-07T05:19:47;6.53;;;1.50;;
40871;SDS011;26591;43.264;26.940;2023-05-07T05:22:12;8.13;;;1.58;;
40871;SDS011;26591;43.264;26.940;2023-05-07T05:24:38;7.07;;;1.80;;
40871;SDS011;26591;43.264;26.940;2023-05-07T05:27:03;12.23;;;1.85;;
40871;SDS011;26591;43.264;26.940;2023-05-07T05:29:29;4.60;;;1.70;;
40871;SDS011;26591;43.264;26.940;2023-05-07T05:31:56;4.28;;;1.70;;
40871;SDS011;26591;43.264;26.940;2023-05-07T05:34:22;8.77;;;1.50;;
40871;SDS011;26591;43.264;26.940;2023-05-07T05:36:47;7.00;;;1.65;;
40871;SDS011;26591;43.264;26.940;2023-05-07T05:39:13;12.05;;;2.00;;
40871;SDS011;26591;43.264;26.940;2023-05-07T05:41:39;8.18;;;1.70;;
40871;SDS011;26591;43.264;26.940;2023-05-07T05:44:04;4.55;;;1.55;;
40871;SDS011;26591;43.264;26.940;2023-05-07T05:46:30;4.53;;;1.90;;
40871;SDS011;26591;43.264;26.940;2023-05-07T05:48:56;5.35;;;1.60;;
40871;SDS011;26591;43.264;26.940;2023-05-07T05:51:22;3.55;;;1.50;;
40871;SDS011;26591;43.264;26.940;2023-05-07T05:53:48;4.07;;;1.42;;
40871;SDS011;26591;43.264;26.940;2023-05-07T05:56:15;5.10;;;1.65;;
40871;SDS011;26591;43.264;26.940;2023-05-07T05:58:43;8.25;;;2.72;;
40871;SDS011;26591;43.264;26.940;2023-05-07T06:01:09;3.30;;;1.67;;
40871;SDS011;26591;43.264;26.940;2023-05-07T06:03:36;2.22;;;1.35;;
40871;SDS011;26591;43.264;26.940;2023-05-07T06:06:01;5.72;;;1.50;;
40871;SDS011;26591;43.264;26.940;2023-05-07T06:08:30;5.47;;;2.00;;
40871;SDS011;26591;43.264;26.940;2023-05-07T06:10:55;3.42;;;1.60;;
40871;SDS011;26591;43.264;26.940;2023-05-07T06:13:24;3.97;;;1.60;;
40871;SDS011;26591;43.264;26.940;2023-05-07T06:15:49;13.98;;;1.90;;
40871;SDS011;26591;43.264;26.940;2023-05-07T06:18:15;13.10;;;1.60;;
40871;SDS011;26591;43.264;26.940;2023-05-07T06:20:40;9.25;;;1.65;;
40871;SDS011;26591;43.264;26.940;2023-05-07T06:23:06;8.48;;;1.75;;
40871;SDS011;26591;43.264;26.940;2023-05-07T06:25:31;4.75;;;1.88;;
40871;SDS011;26591;43.264;26.940;2023-05-07T06:27:57;4.22;;;1.58;;
40871;SDS011;26591;43.264;26.940;2023-05-07T06:30:22;6.93;;;1.45;;
40871;SDS011;26591;43.264;26.940;2023-05-07T06:32:48;9.50;;;1.90;;
40871;SDS011;26591;43.264;26.940;2023-05-07T06:35:13;2.55;;;1.30;;
40871;SDS011;26591;43.264;26.940;2023-05-07T06:37:39;9.63;;;1.80;;
40871;SDS011;26591;43.264;26.940;2023-05-07T06:40:07;4.05;;;1.50;;
40871;SDS011;26591;43.264;26.940;2023-05-07T06:42:33;3.83;;;1.40;;
40871;SDS011;26591;43.264;26.940;2023-05-07T06:44:59;5.35;;;1.27;;
40871;SDS011;26591;43.264;26.940;2023-05-07T06:47:24;4.88;;;1.48;;
40871;SDS011;26591;43.264;26.940;2023-05-07T06:49:50;5.15;;;1.73;;
40871;SDS011;26591;43.264;26.940;2023-05-07T06:52:15;8.40;;;1.70;;
40871;SDS011;26591;43.264;26.940;2023-05-07T06:54:41;4.40;;;1.50;;
40871;SDS011;26591;43.264;26.940;2023-05-07T06:57:06;5.80;;;1.50;;
40871;SDS011;26591;43.264;26.940;2023-05-07T06:59:32;5.28;;;1.70;;
40871;SDS011;26591;43.264;26.940;2023-05-07T07:01:57;3.08;;;1.40;;
40871;SDS011;26591;43.264;26.940;2023-05-07T07:04:23;4.35;;;1.50;;
40871;SDS011;26591;43.264;26.940;2023-05-07T07:06:49;5.15;;;1.33;;
40871;SDS011;26591;43.264;26.940;2023-05-07T07:09:17;4.32;;;1.50;;
40871;SDS011;26591;43.264;26.940;2023-05-07T07:11:42;10.23;;;1.90;;
40871;SDS011;26591;43.264;26.940;2023-05-07T07:14:08;2.42;;;1.50;;
40871;SDS011;26591;43.264;26.940;2023-05-07T07:16:33;6.80;;;1.60;;
40871;SDS011;26591;43.264;26.940;2023-05-07T07:18:59;7.55;;;1.70;;
40871;SDS011;26591;43.264;26.940;2023-05-07T07:21:25;7.55;;;1.42;;
40871;SDS011;26591;43.264;26.940;2023-05-07T07:23:50;5.78;;;1.42;;
40871;SDS011;26591;43.264;26.940;2023-05-07T07:26:16;4.47;;;1.65;;
40871;SDS011;26591;43.264;26.940;2023-05-07T07:28:43;5.00;;;1.30;;
40871;SDS011;26591;43.264;26.940;2023-05-07T07:31:09;6.85;;;1.85;;
40871;SDS011;26591;43.264;26.940;2023-05-07T07:33:35;4.35;;;1.75;;
40871;SDS011;26591;43.264;26.940;2023-05-07T07:36:01;9.05;;;1.80;;
40871;SDS011;26591;43.264;26.940;2023-05-07T07:38:26;5.35;;;1.92;;
40871;SDS011;26591;43.264;26.940;2023-05-07T07:40:52;4.18;;;1.70;;
40871;SDS011;26591;43.264;26.940;2023-05-07T07:43:17;6.60;;;1.85;;
40871;SDS011;26591;43.264;26.940;2023-05-07T07:45:43;3.92;;;1.58;;
40871;SDS011;26591;43.264;26.940;2023-05-07T07:48:08;7.63;;;2.47;;
40871;SDS011;26591;43.264;26.940;2023-05-07T07:50:35;2.85;;;1.55;;
40871;SDS011;26591;43.264;26.940;2023-05-07T07:53:00;6.22;;;2.03;;
40871;SDS011;26591;43.264;26.940;2023-05-07T07:55:26;2.63;;;1.50;;
40871;SDS011;26591;43.264;26.940;2023-05-07T07:57:53;4.55;;;1.50;;
40871;SDS011;26591;43.264;26.940;2023-05-07T08:00:19;4.55;;;1.52;;
40871;SDS011;26591;43.264;26.940;2023-05-07T08:02:47;7.40;;;1.80;;
40871;SDS011;26591;43.264;26.940;2023-05-07T08:05:12;6.40;;;1.70;;
40871;SDS011;26591;43.264;26.940;2023-05-07T08:07:38;6.32;;;1.55;;
40871;SDS011;26591;43.264;26.940;2023-05-07T08:10:03;6.40;;;1.60;;
40871;SDS011;26591;43.264;26.940;2023-05-07T08:12:29;3.78;;;1.30;;
40871;SDS011;26591;43.264;26.940;2023-05-07T08:14:55;5.75;;;1.60;;
40871;SDS011;26591;43.264;26.940;2023-05-07T08:17:20;9.18;;;2.03;;
40871;SDS011;26591;43.264;26.940;2023-05-07T08:19:47;9.55;;;1.60;;
40871;SDS011;26591;43.264;26.940;2023-05-07T08:22:13;3.70;;;1.15;;
40871;SDS011;26591;43.264;26.940;2023-05-07T08:24:39;7.82;;;1.67;;
40871;SDS011;26591;43.264;26.940;2023-05-07T08:27:05;2.72;;;1.55;;
40871;SDS011;26591;43.264;26.940;2023-05-07T08:29:30;4.97;;;1.35;;
40871;SDS011;26591;43.264;26.940;2023-05-07T08:31:56;3.35;;;1.20;;
40871;SDS011;26591;43.264;26.940;2023-05-07T08:34:21;5.53;;;1.45;;
40871;SDS011;26591;43.264;26.940;2023-05-07T08:36:47;4.32;;;1.40;;
40871;SDS011;26591;43.264;26.940;2023-05-07T08:39:15;7.15;;;1.80;;
40871;SDS011;26591;43.264;26.940;2023-05-07T08:41:43;5.03;;;1.65;;
40871;SDS011;26591;43.264;26.940;2023-05-07T08:44:19;8.40;;;1.63;;
40871;SDS011;26591;43.264;26.940;2023-05-07T08:46:47;7.70;;;2.03;;
40871;SDS011;26591;43.264;26.940;2023-05-07T08:49:18;3.03;;;1.20;;
40871;SDS011;26591;43.264;26.940;2023-05-07T08:51:45;3.10;;;1.30;;
40871;SDS011;26591;43.264;26.940;2023-05-07T08:54:11;3.70;;;1.65;;
40871;SDS011;26591;43.264;26.940;2023-05-07T08:56:37;4.20;;;1.45;;
40871;SDS011;26591;43.264;26.940;2023-05-07T08:59:05;7.20;;;2.10;;
40871;SDS011;26591;43.264;26.940;2023-05-07T09:01:30;8.38;;;2.00;;
40871;SDS011;26591;43.264;26.940;2023-05-07T09:03:56;5.93;;;1.30;;
40871;SDS011;26591;43.264;26.940;2023-05-07T09:06:22;5.47;;;1.80;;
40871;SDS011;26591;43.264;26.940;2023-05-07T09:08:51;6.18;;;1.45;;
40871;SDS011;26591;43.264;26.940;2023-05-07T09:11:23;3.53;;;1.80;;
40871;SDS011;26591;43.264;26.940;2023-05-07T09:13:56;6.90;;;1.63;;
40871;SDS011;26591;43.264;26.940;2023-05-07T09:16:28;6.32;;;1.90;;
40871;SDS011;26591;43.264;26.940;2023-05-07T09:18:57;9.35;;;1.38;;
40871;SDS011;26591;43.264;26.940;2023-05-07T09:21:23;7.63;;;1.77;;
40871;SDS011;26591;43.264;26.940;2023-05-07T09:23:52;3.47;;;1.73;;
40871;SDS011;26591;43.264;26.940;2023-05-07T09:26:22;5.70;;;1.30;;
40871;SDS011;26591;43.264;26.940;2023-05-07T09:28:48;6.87;;;1.67;;
40871;SDS011;26591;43.264;26.940;2023-05-07T09:31:13;2.55;;;1.40;;
40871;SDS011;26591;43.264;26.940;2023-05-07T09:33:39;3.35;;;1.20;;
40871;SDS011;26591;43.264;26.940;2023-05-07T09:36:05;6.07;;;1.60;;
40871;SDS011;26591;43.264;26.940;2023-05-07T09:38:32;6.95;;;1.52;;
40871;SDS011;26591;43.264;26.940;2023-05-07T09:43:34;4.32;;;1.65;;
40871;SDS011;26591;43.264;26.940;2023-05-07T09:46:03;5.18;;;2.15;;
40871;SDS011;26591;43.264;26.940;2023-05-07T09:48:37;6.90;;;1.33;;
40871;SDS011;26591;43.264;26.940;2023-05-07T09:51:15;7.63;;;1.58;;
40871;SDS011;26591;43.264;26.940;2023-05-07T09:53:47;3.55;;;1.52;;
40871;SDS011;26591;43.264;26.940;2023-05-07T09:56:14;4.78;;;1.60;;
40871;SDS011;26591;43.264;26.940;2023-05-07T09:58:42;2.97;;;1.38;;
40871;SDS011;26591;43.264;26.940;2023-05-07T10:01:09;2.13;;;1.10;;
40871;SDS011;26591;43.264;26.940;2023-05-07T10:03:36;4.60;;;1.88;;
40871;SDS011;26591;43.264;26.940;2023-05-07T10:06:04;6.93;;;2.10;;
40871;SDS011;26591;43.264;26.940;2023-05-07T10:08:30;4.95;;;1.60;;
40871;SDS011;26591;43.264;26.940;2023-05-07T10:10:56;7.13;;;1.42;;
40871;SDS011;26591;43.264;26.940;2023-05-07T10:13:24;3.70;;;1.45;;
40871;SDS011;26591;43.264;26.940;2023-05-07T10:15:52;2.45;;;1.25;;
40871;SDS011;26591;43.264;26.940;2023-05-07T10:18:20;5.07;;;1.52;;
40871;SDS011;26591;43.264;26.940;2023-05-07T10:20:54;2.88;;;1.20;;
40871;SDS011;26591;43.264;26.940;2023-05-07T10:23:25;3.55;;;1.30;;
40871;SDS011;26591;43.264;26.940;2023-05-07T10:25:55;4.75;;;1.35;;
40871;SDS011;26591;43.264;26.940;2023-05-07T10:28:21;12.52;;;2.85;;
40871;SDS011;26591;43.264;26.940;2023-05-07T10:33:38;5.07;;;1.50;;
40871;SDS011;26591;43.264;26.940;2023-05-07T10:36:04;5.03;;;1.30;;
40871;SDS011;26591;43.264;26.940;2023-05-07T10:38:32;5.05;;;1.40;;
40871;SDS011;26591;43.264;26.940;2023-05-07T10:40:58;4.57;;;2.10;;
40871;SDS011;26591;43.264;26.940;2023-05-07T10:43:24;10.18;;;1.30;;
40871;SDS011;26591;43.264;26.940;2023-05-07T10:51:28;2.83;;;1.20;;
40871;SDS011;26591;43.264;26.940;2023-05-07T10:56:39;5.28;;;1.20;;
40871;SDS011;26591;43.264;26.940;2023-05-07T11:04:20;8.40;;;1.13;;
40871;SDS011;26591;43.264;26.940;2023-05-07T11:15:08;4.78;;;1.40;;
40871;SDS011;26591;43.264;26.940;2023-05-07T11:17:54;6.15;;;1.27;;
40871;SDS011;26591;43.264;26.940;2023-05-07T11:21:08;5.22;;;1.40;;
40871;SDS011;26591;43.264;26.940;2023-05-07T11:23:12;3.65;;;1.30;;
40871;SDS011;26591;43.264;26.940;2023-05-07T11:26:00;2.35;;;1.20;;
40871;SDS011;26591;43.264;26.940;2023-05-07T11:28:28;3.33;;;1.20;;
40871;SDS011;26591;43.264;26.940;2023-05-07T11:30:54;2.63;;;1.30;;
40871;SDS011;26591;43.264;26.940;2023-05-07T11:33:21;3.53;;;1.10;;
40871;SDS011;26591;43.264;26.940;2023-05-07T11:35:47;2.78;;;1.13;;
40871;SDS011;26591;43.264;26.940;2023-05-07T11:38:13;4.60;;;1.17;;
40871;SDS011;26591;43.264;26.940;2023-05-07T11:40:51;4.90;;;1.33;;
40871;SDS011;26591;43.264;26.940;2023-05-07T11:43:18;3.92;;;1.13;;
40871;SDS011;26591;43.264;26.940;2023-05-07T11:45:44;4.20;;;1.40;;
40871;SDS011;26591;43.264;26.940;2023-05-07T11:48:12;5.18;;;1.52;;
40871;SDS011;26591;43.264;26.940;2023-05-07T11:51:23;3.95;;;1.00;;
40871;SDS011;26591;43.264;26.940;2023-05-07T11:53:27;3.25;;;1.10;;
40871;SDS011;26591;43.264;26.940;2023-05-07T11:56:00;4.65;;;1.48;;
40871;SDS011;26591;43.264;26.940;2023-05-07T11:58:31;4.13;;;1.42;;
40871;SDS011;26591;43.264;26.940;2023-05-07T12:00:57;2.10;;;1.40;;
40871;SDS011;26591;43.264;26.940;2023-05-07T12:03:22;2.45;;;1.20;;
40871;SDS011;26591;43.264;26.940;2023-05-07T12:05:47;3.70;;;1.23;;
40871;SDS011;26591;43.264;26.940;2023-05-07T12:08:14;2.60;;;1.30;;
40871;SDS011;26591;43.264;26.940;2023-05-07T12:10:41;3.95;;;0.90;;
40871;SDS011;26591;43.264;26.940;2023-05-07T12:13:23;1.73;;;1.10;;
40871;SDS011;26591;43.264;26.940;2023-05-07T12:15:54;4.03;;;1.00;;
40871;SDS011;26591;43.264;26.940;2023-05-07T12:18:21;3.20;;;0.93;;
40871;SDS011;26591;43.264;26.940;2023-05-07T12:20:47;6.68;;;1.60;;
40871;SDS011;26591;43.264;26.940;2023-05-07T12:23:14;3.97;;;1.08;;
40871;SDS011;26591;43.264;26.940;2023-05-07T12:25:41;2.65;;;1.13;;
40871;SDS011;26591;43.264;26.940;2023-05-07T12:28:17;2.47;;;1.15;;
40871;SDS011;26591;43.264;26.940;2023-05-07T12:30:43;2.88;;;1.13;;
40871;SDS011;26591;43.264;26.940;2023-05-07T12:33:10;9.77;;;1.70;;
40871;SDS011;26591;43.264;26.940;2023-05-07T12:35:37;5.90;;;1.45;;
40871;SDS011;26591;43.264;26.940;2023-05-07T12:38:13;4.68;;;1.95;;
40871;SDS011;26591;43.264;26.940;2023-05-07T12:40:40;2.75;;;1.40;;
40871;SDS011;26591;43.264;26.940;2023-05-07T12:43:07;2.25;;;1.40;;
40871;SDS011;26591;43.264;26.940;2023-05-07T12:45:42;6.65;;;2.15;;
40871;SDS011;26591;43.264;26.940;2023-05-07T12:48:11;6.40;;;1.20;;
40871;SDS011;26591;43.264;26.940;2023-05-07T12:50:37;2.88;;;1.10;;
40871;SDS011;26591;43.264;26.940;2023-05-07T12:53:06;2.28;;;1.23;;
40871;SDS011;26591;43.264;26.940;2023-05-07T12:55:40;5.25;;;1.20;;
40871;SDS011;26591;43.264;26.940;2023-05-07T12:58:16;2.58;;;1.30;;
40871;SDS011;26591;43.264;26.940;2023-05-07T13:00:44;12.23;;;1.77;;
40871;SDS011;26591;43.264;26.940;2023-05-07T13:03:10;6.32;;;1.40;;
40871;SDS011;26591;43.264;26.940;2023-05-07T13:05:36;9.68;;;1.27;;
40871;SDS011;26591;43.264;26.940;2023-05-07T13:08:02;3.17;;;1.40;;
40871;SDS011;26591;43.264;26.940;2023-05-07T13:10:27;4.25;;;1.38;;
40871;SDS011;26591;43.264;26.940;2023-05-07T13:12:53;4.15;;;1.20;;
40871;SDS011;26591;43.264;26.940;2023-05-07T13:15:19;4.35;;;1.10;;
40871;SDS011;26591;43.264;26.940;2023-05-07T13:17:46;3.05;;;1.48;;
40871;SDS011;26591;43.264;26.940;2023-05-07T13:20:12;5.75;;;1.40;;
40871;SDS011;26591;43.264;26.940;2023-05-07T13:22:38;5.72;;;1.40;;
40871;SDS011;26591;43.264;26.940;2023-05-07T13:25:04;1.60;;;0.95;;
40871;SDS011;26591;43.264;26.940;2023-05-07T13:27:30;5.90;;;1.45;;
40871;SDS011;26591;43.264;26.940;2023-05-07T13:29:56;6.55;;;1.40;;
40871;SDS011;26591;43.264;26.940;2023-05-07T13:32:22;2.38;;;1.10;;
40871;SDS011;26591;43.264;26.940;2023-05-07T13:34:47;5.55;;;1.50;;
40871;SDS011;26591;43.264;26.940;2023-05-07T13:37:13;2.65;;;1.20;;
40871;SDS011;26591;43.264;26.940;2023-05-07T13:39:38;4.43;;;1.70;;
40871;SDS011;26591;43.264;26.940;2023-05-07T13:42:04;4.50;;;1.50;;
40871;SDS011;26591;43.264;26.940;2023-05-07T13:44:29;3.28;;;1.55;;
40871;SDS011;26591;43.264;26.940;2023-05-07T13:46:55;3.65;;;1.02;;
40871;SDS011;26591;43.264;26.940;2023-05-07T13:49:20;2.75;;;1.35;;
40871;SDS011;26591;43.264;26.940;2023-05-07T13:51:46;5.25;;;1.42;;
40871;SDS011;26591;43.264;26.940;2023-05-07T13:54:11;10.07;;;1.30;;
40871;SDS011;26591;43.264;26.940;2023-05-07T13:56:37;8.05;;;1.52;;
40871;SDS011;26591;43.264;26.940;2023-05-07T13:59:02;7.10;;;1.52;;
40871;SDS011;26591;43.264;26.940;2023-05-07T14:01:28;3.72;;;1.25;;
40871;SDS011;26591;43.264;26.940;2023-05-07T14:03:53;5.05;;;1.15;;
40871;SDS011;26591;43.264;26.940;2023-05-07T14:06:20;2.15;;;1.20;;
40871;SDS011;26591;43.264;26.940;2023-05-07T14:08:46;5.72;;;2.47;;
40871;SDS011;26591;43.264;26.940;2023-05-07T14:11:15;6.68;;;2.10;;
40871;SDS011;26591;43.264;26.940;2023-05-07T14:13:40;3.75;;;1.42;;
40871;SDS011;26591;43.264;26.940;2023-05-07T14:16:06;4.47;;;1.50;;
40871;SDS011;26591;43.264;26.940;2023-05-07T14:18:31;2.70;;;1.30;;
40871;SDS011;26591;43.264;26.940;2023-05-07T14:20:58;7.28;;;1.50;;
40871;SDS011;26591;43.264;26.940;2023-05-07T14:23:24;2.55;;;1.15;;
40871;SDS011;26591;43.264;26.940;2023-05-07T14:25:51;3.53;;;1.70;;
40871;SDS011;26591;43.264;26.940;2023-05-07T14:28:17;4.32;;;1.08;;
40871;SDS011;26591;43.264;26.940;2023-05-07T14:30:42;5.22;;;1.17;;
40871;SDS011;26591;43.264;26.940;2023-05-07T14:33:08;5.43;;;1.50;;
40871;SDS011;26591;43.264;26.940;2023-05-07T14:35:33;8.23;;;1.50;;
40871;SDS011;26591;43.264;26.940;2023-05-07T14:38:01;3.30;;;1.70;;
40871;SDS011;26591;43.264;26.940;2023-05-07T14:40:27;2.58;;;1.27;;
40871;SDS011;26591;43.264;26.940;2023-05-07T14:42:52;4.45;;;1.42;;
40871;SDS011;26591;43.264;26.940;2023-05-07T14:45:20;3.83;;;1.33;;
40871;SDS011;26591;43.264;26.940;2023-05-07T14:47:46;3.13;;;1.42;;
40871;SDS011;26591;43.264;26.940;2023-05-07T14:50:11;5.38;;;1.38;;
40871;SDS011;26591;43.264;26.940;2023-05-07T14:52:37;7.78;;;1.48;;
40871;SDS011;26591;43.264;26.940;2023-05-07T14:55:03;3.28;;;1.27;;
40871;SDS011;26591;43.264;26.940;2023-05-07T14:57:29;3.22;;;1.42;;
40871;SDS011;26591;43.264;26.940;2023-05-07T14:59:55;3.15;;;1.60;;